Kezdőlap
METAR-TAF:

METAR-TAF

Repülőterek :

Tomszk, Oroszország

földrajzi szélesség: 56-23-12N, földrajzi hosszúság: 085-12-38E, magasság: 182 m

Jelenlegi meteorológiai megfigyelések

A jelentés 18 perccel ezelõtt készült, 15:00 UTC
Kelet-délkeleti szél 4 kt
Hőmérséklet 23°C
Páratartalom 69%
Légköri nyomás 1007 hPa
Látótávolság 10 km, vagy több
felhőtlen 1500 m magasságban, és nincs gomolyfelhõ

METAR: UNTT 161500Z 11002MPS CAVOK 23/17 Q1007 R21/////// NOSIG RMK QFE740

Idő: 22:18 (15:18 UTC)

Előrejelzés

A jelentés 1 órával és 18 perccel ezelõtt készült, 14:00 UTC
Az előrejelzés 16-én 15 óra UTC és 16-én 24 óra UTC között érvényes
Keleti szél 6 kt széllökések: 16 kt
Látótávolság 10 km, vagy több
Szakadozott felhőzet 4000 lábon, Cumulonimbus.

TAF: UNTT 161400Z 1615/1624 08003G08MPS 9999 BKN040CB

Meteorológiai megfigyelések és előrejelzések több, mint 4000 repülőtéren (METAR és TAF jelentéseket).

A térképen piros és sárga pontok jelzik az elérhető meteorológiai állomásokat.

Mozgassa az egeret a pont fölött, hogy megjelenjen az állomás neve.

Azután kattintson az időjárási megfigyelések és előrejelzések megtekintéséhez.

A térkép megváltoztatása: kattintson a fekete keresztel jelölt zöld gombra ráközelítéshez, a vonallal jelölt zöld gombra távolításhoz, vagy a zöld nyilakra a szomszédos térképek eléréséhez.


METAR-TAF: